sensor_id;sensor_type;location;lat;lon;timestamp;P1;durP1;ratioP1;P2;durP2;ratioP2
18695;SDS011;22617;43.690;27.956;2022-07-22T00:00:30;6.72;;;3.60;;
18695;SDS011;22617;43.690;27.956;2022-07-22T00:05:35;8.10;;;3.67;;
18695;SDS011;22617;43.690;27.956;2022-07-22T00:10:39;3.65;;;3.28;;
18695;SDS011;22617;43.690;27.956;2022-07-22T00:15:45;4.95;;;3.47;;
18695;SDS011;22617;43.690;27.956;2022-07-22T00:20:49;5.63;;;3.75;;
18695;SDS011;22617;43.690;27.956;2022-07-22T00:25:53;7.68;;;3.35;;
18695;SDS011;22617;43.690;27.956;2022-07-22T00:30:58;6.07;;;3.30;;
18695;SDS011;22617;43.690;27.956;2022-07-22T00:36:03;6.70;;;3.85;;
18695;SDS011;22617;43.690;27.956;2022-07-22T00:41:08;7.35;;;3.38;;
18695;SDS011;22617;43.690;27.956;2022-07-22T00:46:14;4.25;;;3.05;;
18695;SDS011;22617;43.690;27.956;2022-07-22T00:51:18;5.13;;;3.30;;
18695;SDS011;22617;43.690;27.956;2022-07-22T00:56:23;6.47;;;3.53;;
18695;SDS011;22617;43.690;27.956;2022-07-22T01:01:29;5.15;;;3.67;;
18695;SDS011;22617;43.690;27.956;2022-07-22T01:06:34;5.63;;;3.40;;
18695;SDS011;22617;43.690;27.956;2022-07-22T01:11:38;5.47;;;3.80;;
18695;SDS011;22617;43.690;27.956;2022-07-22T01:16:44;4.93;;;3.20;;
18695;SDS011;22617;43.690;27.956;2022-07-22T01:21:52;4.63;;;3.40;;
18695;SDS011;22617;43.690;27.956;2022-07-22T01:26:57;5.45;;;3.30;;
18695;SDS011;22617;43.690;27.956;2022-07-22T01:32:01;5.57;;;4.28;;
18695;SDS011;22617;43.690;27.956;2022-07-22T01:37:07;7.45;;;4.70;;
18695;SDS011;22617;43.690;27.956;2022-07-22T01:42:11;9.20;;;5.53;;
18695;SDS011;22617;43.690;27.956;2022-07-22T01:47:17;9.48;;;5.88;;
18695;SDS011;22617;43.690;27.956;2022-07-22T01:52:23;8.65;;;5.20;;
18695;SDS011;22617;43.690;27.956;2022-07-22T01:57:29;9.40;;;5.10;;
18695;SDS011;22617;43.690;27.956;2022-07-22T02:02:34;9.65;;;5.38;;
18695;SDS011;22617;43.690;27.956;2022-07-22T02:07:40;11.57;;;5.38;;
18695;SDS011;22617;43.690;27.956;2022-07-22T02:12:45;6.90;;;4.68;;
18695;SDS011;22617;43.690;27.956;2022-07-22T02:18:10;7.20;;;4.40;;
18695;SDS011;22617;43.690;27.956;2022-07-22T02:23:19;8.20;;;5.18;;
18695;SDS011;22617;43.690;27.956;2022-07-22T02:28:24;8.07;;;4.57;;
18695;SDS011;22617;43.690;27.956;2022-07-22T02:33:29;6.45;;;4.32;;
18695;SDS011;22617;43.690;27.956;2022-07-22T02:38:36;6.30;;;4.53;;
18695;SDS011;22617;43.690;27.956;2022-07-22T02:43:40;8.13;;;4.53;;
18695;SDS011;22617;43.690;27.956;2022-07-22T02:48:45;8.02;;;4.32;;
18695;SDS011;22617;43.690;27.956;2022-07-22T02:53:53;7.90;;;5.30;;
18695;SDS011;22617;43.690;27.956;2022-07-22T02:58:57;6.70;;;4.35;;
18695;SDS011;22617;43.690;27.956;2022-07-22T03:04:02;7.00;;;4.60;;
18695;SDS011;22617;43.690;27.956;2022-07-22T03:09:10;7.43;;;4.25;;
18695;SDS011;22617;43.690;27.956;2022-07-22T03:14:18;6.80;;;4.18;;
18695;SDS011;22617;43.690;27.956;2022-07-22T03:19:22;6.13;;;3.83;;
18695;SDS011;22617;43.690;27.956;2022-07-22T03:24:30;6.88;;;4.63;;
18695;SDS011;22617;43.690;27.956;2022-07-22T03:29:35;11.02;;;5.80;;
18695;SDS011;22617;43.690;27.956;2022-07-22T03:34:39;8.43;;;4.90;;
18695;SDS011;22617;43.690;27.956;2022-07-22T03:39:46;9.90;;;5.88;;
18695;SDS011;22617;43.690;27.956;2022-07-22T03:44:50;11.73;;;5.38;;
18695;SDS011;22617;43.690;27.956;2022-07-22T03:49:55;9.50;;;5.82;;
18695;SDS011;22617;43.690;27.956;2022-07-22T03:55:06;9.73;;;5.22;;
18695;SDS011;22617;43.690;27.956;2022-07-22T04:00:11;9.07;;;5.50;;
18695;SDS011;22617;43.690;27.956;2022-07-22T04:05:17;8.88;;;5.82;;
18695;SDS011;22617;43.690;27.956;2022-07-22T04:10:24;10.43;;;6.45;;
18695;SDS011;22617;43.690;27.956;2022-07-22T04:15:28;7.72;;;5.95;;
18695;SDS011;22617;43.690;27.956;2022-07-22T04:20:32;9.85;;;6.22;;
18695;SDS011;22617;43.690;27.956;2022-07-22T04:25:58;9.10;;;6.25;;
18695;SDS011;22617;43.690;27.956;2022-07-22T04:31:04;6.32;;;5.53;;
18695;SDS011;22617;43.690;27.956;2022-07-22T04:36:11;9.82;;;5.38;;
18695;SDS011;22617;43.690;27.956;2022-07-22T04:41:18;16.90;;;5.38;;
18695;SDS011;22617;43.690;27.956;2022-07-22T04:46:23;11.43;;;4.47;;
18695;SDS011;22617;43.690;27.956;2022-07-22T04:51:30;8.68;;;4.78;;
18695;SDS011;22617;43.690;27.956;2022-07-22T04:56:40;10.82;;;4.55;;
18695;SDS011;22617;43.690;27.956;2022-07-22T05:01:45;9.65;;;4.50;;
18695;SDS011;22617;43.690;27.956;2022-07-22T05:06:50;7.03;;;4.32;;
18695;SDS011;22617;43.690;27.956;2022-07-22T05:11:57;9.25;;;4.35;;
18695;SDS011;22617;43.690;27.956;2022-07-22T05:17:02;6.03;;;3.67;;
18695;SDS011;22617;43.690;27.956;2022-07-22T05:22:09;12.85;;;3.78;;
18695;SDS011;22617;43.690;27.956;2022-07-22T05:27:14;6.13;;;2.90;;
18695;SDS011;22617;43.690;27.956;2022-07-22T05:32:18;6.28;;;2.83;;
18695;SDS011;22617;43.690;27.956;2022-07-22T05:37:28;6.00;;;2.55;;
18695;SDS011;22617;43.690;27.956;2022-07-22T05:42:34;7.05;;;2.47;;
18695;SDS011;22617;43.690;27.956;2022-07-22T05:47:38;4.28;;;2.45;;
18695;SDS011;22617;43.690;27.956;2022-07-22T05:52:42;5.55;;;2.20;;
18695;SDS011;22617;43.690;27.956;2022-07-22T05:57:48;9.75;;;3.25;;
18695;SDS011;22617;43.690;27.956;2022-07-22T06:02:52;4.47;;;2.38;;
18695;SDS011;22617;43.690;27.956;2022-07-22T06:07:57;6.07;;;2.13;;
18695;SDS011;22617;43.690;27.956;2022-07-22T06:13:14;6.70;;;2.22;;
18695;SDS011;22617;43.690;27.956;2022-07-22T06:18:18;2.65;;;1.90;;
18695;SDS011;22617;43.690;27.956;2022-07-22T06:23:22;5.43;;;1.90;;
18695;SDS011;22617;43.690;27.956;2022-07-22T06:28:28;5.30;;;1.80;;
18695;SDS011;22617;43.690;27.956;2022-07-22T06:33:34;3.08;;;1.80;;
18695;SDS011;22617;43.690;27.956;2022-07-22T06:38:38;3.55;;;1.65;;
18695;SDS011;22617;43.690;27.956;2022-07-22T06:43:53;8.32;;;2.30;;
18695;SDS011;22617;43.690;27.956;2022-07-22T06:49:07;5.03;;;1.73;;
18695;SDS011;22617;43.690;27.956;2022-07-22T06:54:16;7.25;;;3.20;;
18695;SDS011;22617;43.690;27.956;2022-07-22T06:59:23;4.53;;;1.67;;
18695;SDS011;22617;43.690;27.956;2022-07-22T07:04:28;4.07;;;1.20;;
18695;SDS011;22617;43.690;27.956;2022-07-22T07:09:33;4.07;;;1.30;;
18695;SDS011;22617;43.690;27.956;2022-07-22T07:15:09;4.72;;;1.40;;
18695;SDS011;22617;43.690;27.956;2022-07-22T07:20:27;2.90;;;1.30;;
18695;SDS011;22617;43.690;27.956;2022-07-22T07:25:33;2.75;;;1.20;;
18695;SDS011;22617;43.690;27.956;2022-07-22T07:30:40;2.42;;;0.93;;
18695;SDS011;22617;43.690;27.956;2022-07-22T07:35:45;5.75;;;1.10;;
18695;SDS011;22617;43.690;27.956;2022-07-22T07:40:56;3.95;;;0.95;;
18695;SDS011;22617;43.690;27.956;2022-07-22T07:46:02;4.10;;;1.13;;
18695;SDS011;22617;43.690;27.956;2022-07-22T07:51:07;3.45;;;1.00;;
18695;SDS011;22617;43.690;27.956;2022-07-22T07:56:15;2.53;;;1.00;;
18695;SDS011;22617;43.690;27.956;2022-07-22T08:01:22;3.53;;;1.17;;
18695;SDS011;22617;43.690;27.956;2022-07-22T08:06:46;3.47;;;1.20;;
18695;SDS011;22617;43.690;27.956;2022-07-22T08:11:51;4.47;;;1.30;;
18695;SDS011;22617;43.690;27.956;2022-07-22T08:17:26;1.90;;;1.00;;
18695;SDS011;22617;43.690;27.956;2022-07-22T08:22:31;4.32;;;1.30;;
18695;SDS011;22617;43.690;27.956;2022-07-22T08:27:35;6.72;;;1.30;;
18695;SDS011;22617;43.690;27.956;2022-07-22T08:32:41;3.38;;;1.08;;
18695;SDS011;22617;43.690;27.956;2022-07-22T08:37:46;3.60;;;1.02;;
18695;SDS011;22617;43.690;27.956;2022-07-22T08:42:51;3.05;;;1.20;;
18695;SDS011;22617;43.690;27.956;2022-07-22T08:47:57;1.77;;;1.25;;
18695;SDS011;22617;43.690;27.956;2022-07-22T08:53:23;5.53;;;1.70;;
18695;SDS011;22617;43.690;27.956;2022-07-22T08:58:32;6.75;;;1.25;;
18695;SDS011;22617;43.690;27.956;2022-07-22T09:03:45;2.63;;;1.23;;
18695;SDS011;22617;43.690;27.956;2022-07-22T09:08:53;5.00;;;1.40;;
18695;SDS011;22617;43.690;27.956;2022-07-22T09:14:28;4.25;;;1.45;;
18695;SDS011;22617;43.690;27.956;2022-07-22T09:20:16;6.18;;;1.40;;
18695;SDS011;22617;43.690;27.956;2022-07-22T09:25:56;6.53;;;1.67;;
18695;SDS011;22617;43.690;27.956;2022-07-22T09:31:23;3.28;;;1.50;;
18695;SDS011;22617;43.690;27.956;2022-07-22T09:42:06;3.67;;;1.40;;
18695;SDS011;22617;43.690;27.956;2022-07-22T09:47:18;4.50;;;1.65;;
18695;SDS011;22617;43.690;27.956;2022-07-22T09:53:04;4.35;;;1.70;;
18695;SDS011;22617;43.690;27.956;2022-07-22T09:58:13;3.08;;;1.38;;
18695;SDS011;22617;43.690;27.956;2022-07-22T10:03:17;3.80;;;1.65;;
18695;SDS011;22617;43.690;27.956;2022-07-22T10:08:24;3.13;;;1.75;;
18695;SDS011;22617;43.690;27.956;2022-07-22T10:13:29;3.38;;;1.90;;
18695;SDS011;22617;43.690;27.956;2022-07-22T10:18:32;6.38;;;1.70;;
18695;SDS011;22617;43.690;27.956;2022-07-22T10:23:40;2.88;;;1.88;;
18695;SDS011;22617;43.690;27.956;2022-07-22T10:29:42;4.45;;;1.70;;
18695;SDS011;22617;43.690;27.956;2022-07-22T10:35:18;3.25;;;1.90;;
18695;SDS011;22617;43.690;27.956;2022-07-22T10:40:25;7.05;;;1.90;;
18695;SDS011;22617;43.690;27.956;2022-07-22T10:45:30;6.25;;;1.80;;
18695;SDS011;22617;43.690;27.956;2022-07-22T10:50:39;2.10;;;1.60;;
18695;SDS011;22617;43.690;27.956;2022-07-22T10:56:03;4.03;;;1.50;;
18695;SDS011;22617;43.690;27.956;2022-07-22T11:01:17;3.90;;;1.77;;
18695;SDS011;22617;43.690;27.956;2022-07-22T11:06:25;2.78;;;1.38;;
18695;SDS011;22617;43.690;27.956;2022-07-22T11:11:33;5.38;;;1.40;;
18695;SDS011;22617;43.690;27.956;2022-07-22T11:16:40;5.35;;;1.38;;
18695;SDS011;22617;43.690;27.956;2022-07-22T11:21:48;3.63;;;1.30;;
18695;SDS011;22617;43.690;27.956;2022-07-22T11:26:52;2.45;;;1.40;;
18695;SDS011;22617;43.690;27.956;2022-07-22T11:32:04;5.88;;;1.35;;
18695;SDS011;22617;43.690;27.956;2022-07-22T11:37:09;3.28;;;1.83;;
18695;SDS011;22617;43.690;27.956;2022-07-22T11:42:11;1.92;;;1.35;;
18695;SDS011;22617;43.690;27.956;2022-07-22T11:47:15;1.73;;;1.08;;
18695;SDS011;22617;43.690;27.956;2022-07-22T11:52:18;2.78;;;1.30;;
18695;SDS011;22617;43.690;27.956;2022-07-22T11:57:21;2.80;;;1.20;;
18695;SDS011;22617;43.690;27.956;2022-07-22T12:02:25;2.10;;;1.05;;
18695;SDS011;22617;43.690;27.956;2022-07-22T12:07:28;1.25;;;0.90;;
18695;SDS011;22617;43.690;27.956;2022-07-22T12:12:40;1.92;;;0.90;;
18695;SDS011;22617;43.690;27.956;2022-07-22T12:17:44;2.08;;;1.10;;
18695;SDS011;22617;43.690;27.956;2022-07-22T12:22:47;3.22;;;0.95;;
18695;SDS011;22617;43.690;27.956;2022-07-22T12:27:59;2.60;;;1.92;;
18695;SDS011;22617;43.690;27.956;2022-07-22T12:33:03;3.10;;;1.50;;
18695;SDS011;22617;43.690;27.956;2022-07-22T12:38:06;2.97;;;1.42;;
18695;SDS011;22617;43.690;27.956;2022-07-22T12:43:10;3.83;;;1.10;;
18695;SDS011;22617;43.690;27.956;2022-07-22T12:48:13;3.58;;;1.10;;
18695;SDS011;22617;43.690;27.956;2022-07-22T12:53:16;3.00;;;1.15;;
18695;SDS011;22617;43.690;27.956;2022-07-22T12:58:21;8.50;;;1.70;;
18695;SDS011;22617;43.690;27.956;2022-07-22T13:03:26;2.78;;;1.10;;
18695;SDS011;22617;43.690;27.956;2022-07-22T13:08:31;2.97;;;1.55;;
18695;SDS011;22617;43.690;27.956;2022-07-22T13:13:46;6.45;;;1.65;;
18695;SDS011;22617;43.690;27.956;2022-07-22T13:18:50;5.25;;;1.63;;
18695;SDS011;22617;43.690;27.956;2022-07-22T13:23:53;3.13;;;1.73;;
18695;SDS011;22617;43.690;27.956;2022-07-22T13:28:57;2.85;;;1.50;;
18695;SDS011;22617;43.690;27.956;2022-07-22T13:34:01;4.28;;;1.38;;
18695;SDS011;22617;43.690;27.956;2022-07-22T13:39:04;5.78;;;1.65;;
18695;SDS011;22617;43.690;27.956;2022-07-22T13:44:07;3.75;;;1.60;;
18695;SDS011;22617;43.690;27.956;2022-07-22T13:49:12;1.90;;;1.50;;
18695;SDS011;22617;43.690;27.956;2022-07-22T13:54:15;2.50;;;1.63;;
18695;SDS011;22617;43.690;27.956;2022-07-22T13:59:18;7.82;;;2.08;;
18695;SDS011;22617;43.690;27.956;2022-07-22T14:04:22;3.30;;;1.98;;
18695;SDS011;22617;43.690;27.956;2022-07-22T14:09:25;4.97;;;1.98;;
18695;SDS011;22617;43.690;27.956;2022-07-22T14:14:43;6.43;;;1.70;;
18695;SDS011;22617;43.690;27.956;2022-07-22T14:19:47;4.20;;;1.58;;
18695;SDS011;22617;43.690;27.956;2022-07-22T14:24:57;5.80;;;2.13;;
18695;SDS011;22617;43.690;27.956;2022-07-22T14:30:01;5.70;;;1.98;;
18695;SDS011;22617;43.690;27.956;2022-07-22T14:35:05;5.20;;;2.38;;
18695;SDS011;22617;43.690;27.956;2022-07-22T14:40:10;5.35;;;1.95;;
18695;SDS011;22617;43.690;27.956;2022-07-22T14:45:13;4.05;;;2.10;;
18695;SDS011;22617;43.690;27.956;2022-07-22T14:50:17;3.22;;;2.30;;
18695;SDS011;22617;43.690;27.956;2022-07-22T14:55:20;4.68;;;2.08;;
18695;SDS011;22617;43.690;27.956;2022-07-22T15:00:27;5.00;;;2.08;;
18695;SDS011;22617;43.690;27.956;2022-07-22T15:05:31;5.10;;;2.60;;
18695;SDS011;22617;43.690;27.956;2022-07-22T15:10:35;27.45;;;3.42;;
18695;SDS011;22617;43.690;27.956;2022-07-22T15:15:38;6.03;;;2.65;;
18695;SDS011;22617;43.690;27.956;2022-07-22T15:20:41;6.07;;;3.65;;
18695;SDS011;22617;43.690;27.956;2022-07-22T15:25:44;5.55;;;2.80;;
18695;SDS011;22617;43.690;27.956;2022-07-22T15:30:47;4.85;;;2.30;;
18695;SDS011;22617;43.690;27.956;2022-07-22T15:35:51;4.10;;;2.30;;
18695;SDS011;22617;43.690;27.956;2022-07-22T15:40:54;8.40;;;4.80;;
18695;SDS011;22617;43.690;27.956;2022-07-22T15:45:58;5.90;;;4.03;;
18695;SDS011;22617;43.690;27.956;2022-07-22T15:51:02;4.57;;;3.28;;
18695;SDS011;22617;43.690;27.956;2022-07-22T15:56:05;3.42;;;2.60;;
18695;SDS011;22617;43.690;27.956;2022-07-22T16:01:09;7.93;;;2.33;;
18695;SDS011;22617;43.690;27.956;2022-07-22T16:06:13;6.38;;;3.38;;
18695;SDS011;22617;43.690;27.956;2022-07-22T16:11:16;3.17;;;2.15;;
18695;SDS011;22617;43.690;27.956;2022-07-22T16:16:19;4.93;;;2.38;;
18695;SDS011;22617;43.690;27.956;2022-07-22T16:21:23;5.28;;;2.15;;
18695;SDS011;22617;43.690;27.956;2022-07-22T16:26:28;6.65;;;2.47;;
18695;SDS011;22617;43.690;27.956;2022-07-22T16:31:30;5.07;;;2.28;;
18695;SDS011;22617;43.690;27.956;2022-07-22T16:36:34;4.82;;;2.10;;
18695;SDS011;22617;43.690;27.956;2022-07-22T16:41:37;3.50;;;2.00;;
18695;SDS011;22617;43.690;27.956;2022-07-22T16:46:40;6.32;;;1.95;;
18695;SDS011;22617;43.690;27.956;2022-07-22T16:51:44;2.97;;;2.30;;
18695;SDS011;22617;43.690;27.956;2022-07-22T16:56:47;4.35;;;2.05;;
18695;SDS011;22617;43.690;27.956;2022-07-22T17:01:50;5.78;;;1.92;;
18695;SDS011;22617;43.690;27.956;2022-07-22T17:06:54;7.00;;;2.10;;
18695;SDS011;22617;43.690;27.956;2022-07-22T17:11:57;4.07;;;1.95;;
18695;SDS011;22617;43.690;27.956;2022-07-22T17:17:02;4.55;;;1.80;;
18695;SDS011;22617;43.690;27.956;2022-07-22T17:22:06;4.03;;;1.67;;
18695;SDS011;22617;43.690;27.956;2022-07-22T17:27:09;2.90;;;1.80;;
18695;SDS011;22617;43.690;27.956;2022-07-22T17:32:12;3.65;;;1.65;;
18695;SDS011;22617;43.690;27.956;2022-07-22T17:37:16;6.25;;;2.00;;
18695;SDS011;22617;43.690;27.956;2022-07-22T17:42:19;5.38;;;2.20;;
18695;SDS011;22617;43.690;27.956;2022-07-22T17:47:22;4.85;;;2.00;;
18695;SDS011;22617;43.690;27.956;2022-07-22T17:52:26;5.40;;;2.28;;
18695;SDS011;22617;43.690;27.956;2022-07-22T17:57:29;5.25;;;1.90;;
18695;SDS011;22617;43.690;27.956;2022-07-22T18:02:32;7.97;;;2.33;;
18695;SDS011;22617;43.690;27.956;2022-07-22T18:07:35;5.43;;;1.90;;
18695;SDS011;22617;43.690;27.956;2022-07-22T18:12:38;3.08;;;2.00;;
18695;SDS011;22617;43.690;27.956;2022-07-22T18:17:40;3.95;;;1.73;;
18695;SDS011;22617;43.690;27.956;2022-07-22T18:22:44;6.32;;;1.92;;
18695;SDS011;22617;43.690;27.956;2022-07-22T18:27:47;5.40;;;2.13;;
18695;SDS011;22617;43.690;27.956;2022-07-22T18:32:50;4.80;;;1.90;;
18695;SDS011;22617;43.690;27.956;2022-07-22T18:37:54;5.55;;;2.05;;
18695;SDS011;22617;43.690;27.956;2022-07-22T18:42:57;5.20;;;1.90;;
18695;SDS011;22617;43.690;27.956;2022-07-22T18:48:00;5.32;;;2.15;;
18695;SDS011;22617;43.690;27.956;2022-07-22T18:53:03;8.77;;;1.80;;
18695;SDS011;22617;43.690;27.956;2022-07-22T18:58:06;3.38;;;1.75;;
18695;SDS011;22617;43.690;27.956;2022-07-22T19:03:09;5.78;;;1.98;;
18695;SDS011;22617;43.690;27.956;2022-07-22T19:08:13;5.80;;;1.90;;
18695;SDS011;22617;43.690;27.956;2022-07-22T19:13:16;4.70;;;2.03;;
18695;SDS011;22617;43.690;27.956;2022-07-22T19:18:19;3.85;;;1.75;;
18695;SDS011;22617;43.690;27.956;2022-07-22T19:23:25;12.30;;;2.67;;
18695;SDS011;22617;43.690;27.956;2022-07-22T19:28:28;8.13;;;1.67;;
18695;SDS011;22617;43.690;27.956;2022-07-22T19:33:32;3.58;;;1.85;;
18695;SDS011;22617;43.690;27.956;2022-07-22T19:38:35;3.85;;;1.95;;
18695;SDS011;22617;43.690;27.956;2022-07-22T19:43:38;3.78;;;1.70;;
18695;SDS011;22617;43.690;27.956;2022-07-22T19:48:41;2.67;;;1.70;;
18695;SDS011;22617;43.690;27.956;2022-07-22T19:53:50;4.20;;;1.40;;
18695;SDS011;22617;43.690;27.956;2022-07-22T19:58:54;6.15;;;2.00;;
18695;SDS011;22617;43.690;27.956;2022-07-22T20:03:57;6.25;;;2.00;;
18695;SDS011;22617;43.690;27.956;2022-07-22T20:09:02;3.28;;;1.70;;
18695;SDS011;22617;43.690;27.956;2022-07-22T20:14:05;2.08;;;1.60;;
18695;SDS011;22617;43.690;27.956;2022-07-22T20:19:09;3.50;;;1.70;;
18695;SDS011;22617;43.690;27.956;2022-07-22T20:24:13;3.88;;;1.80;;
18695;SDS011;22617;43.690;27.956;2022-07-22T20:29:17;4.20;;;1.83;;
18695;SDS011;22617;43.690;27.956;2022-07-22T20:34:20;5.65;;;3.08;;
18695;SDS011;22617;43.690;27.956;2022-07-22T20:39:23;4.10;;;1.80;;
18695;SDS011;22617;43.690;27.956;2022-07-22T20:44:26;7.85;;;2.08;;
18695;SDS011;22617;43.690;27.956;2022-07-22T20:49:29;2.75;;;1.90;;
18695;SDS011;22617;43.690;27.956;2022-07-22T20:54:33;3.72;;;1.77;;
18695;SDS011;22617;43.690;27.956;2022-07-22T20:59:36;5.18;;;2.38;;
18695;SDS011;22617;43.690;27.956;2022-07-22T21:04:39;5.25;;;2.00;;
18695;SDS011;22617;43.690;27.956;2022-07-22T21:09:42;6.85;;;3.05;;
18695;SDS011;22617;43.690;27.956;2022-07-22T21:14:44;4.10;;;2.03;;
18695;SDS011;22617;43.690;27.956;2022-07-22T21:19:57;5.47;;;1.90;;
18695;SDS011;22617;43.690;27.956;2022-07-22T21:25:00;4.07;;;2.22;;
18695;SDS011;22617;43.690;27.956;2022-07-22T21:30:04;2.05;;;1.80;;
18695;SDS011;22617;43.690;27.956;2022-07-22T21:35:09;3.08;;;1.92;;
18695;SDS011;22617;43.690;27.956;2022-07-22T21:40:13;3.70;;;2.10;;
18695;SDS011;22617;43.690;27.956;2022-07-22T21:45:15;2.65;;;1.90;;
18695;SDS011;22617;43.690;27.956;2022-07-22T21:50:18;2.92;;;1.77;;
18695;SDS011;22617;43.690;27.956;2022-07-22T21:55:21;2.05;;;1.60;;
18695;SDS011;22617;43.690;27.956;2022-07-22T22:00:24;3.33;;;1.80;;
18695;SDS011;22617;43.690;27.956;2022-07-22T22:05:27;4.95;;;2.13;;
18695;SDS011;22617;43.690;27.956;2022-07-22T22:10:30;2.38;;;1.80;;
18695;SDS011;22617;43.690;27.956;2022-07-22T22:15:34;2.13;;;1.60;;
18695;SDS011;22617;43.690;27.956;2022-07-22T22:20:36;2.50;;;1.63;;
18695;SDS011;22617;43.690;27.956;2022-07-22T22:25:40;2.40;;;1.75;;
18695;SDS011;22617;43.690;27.956;2022-07-22T22:30:42;2.10;;;1.77;;
18695;SDS011;22617;43.690;27.956;2022-07-22T22:35:45;2.28;;;1.65;;
18695;SDS011;22617;43.690;27.956;2022-07-22T22:40:48;3.63;;;1.77;;
18695;SDS011;22617;43.690;27.956;2022-07-22T22:45:51;2.55;;;1.60;;
18695;SDS011;22617;43.690;27.956;2022-07-22T22:50:55;2.67;;;1.60;;
18695;SDS011;22617;43.690;27.956;2022-07-22T22:55:58;2.92;;;1.73;;
18695;SDS011;22617;43.690;27.956;2022-07-22T23:01:02;3.70;;;2.00;;
18695;SDS011;22617;43.690;27.956;2022-07-22T23:06:05;3.80;;;1.90;;
18695;SDS011;22617;43.690;27.956;2022-07-22T23:11:09;2.75;;;2.00;;
18695;SDS011;22617;43.690;27.956;2022-07-22T23:16:11;3.38;;;1.88;;
18695;SDS011;22617;43.690;27.956;2022-07-22T23:21:14;2.03;;;1.70;;
18695;SDS011;22617;43.690;27.956;2022-07-22T23:26:17;4.88;;;1.95;;
18695;SDS011;22617;43.690;27.956;2022-07-22T23:31:20;2.55;;;1.98;;
18695;SDS011;22617;43.690;27.956;2022-07-22T23:36:23;3.10;;;2.17;;
18695;SDS011;22617;43.690;27.956;2022-07-22T23:41:26;2.97;;;2.08;;
18695;SDS011;22617;43.690;27.956;2022-07-22T23:46:29;2.42;;;1.73;;
18695;SDS011;22617;43.690;27.956;2022-07-22T23:51:32;2.50;;;1.75;;
18695;SDS011;22617;43.690;27.956;2022-07-22T23:56:36;2.35;;;1.92;;
